sensor_id;sensor_type;location;lat;lon;timestamp;temperature;humidity
22968;DHT22;11650;48.106;-1.696;2023-05-29T00:02:09;16.90;99.90
22968;DHT22;11650;48.106;-1.696;2023-05-29T00:04:35;16.80;99.90
22968;DHT22;11650;48.106;-1.696;2023-05-29T00:07:03;16.80;99.90
22968;DHT22;11650;48.106;-1.696;2023-05-29T00:09:28;16.80;99.90
22968;DHT22;11650;48.106;-1.696;2023-05-29T00:11:55;16.70;99.90
22968;DHT22;11650;48.106;-1.696;2023-05-29T00:14:21;16.70;99.90
22968;DHT22;11650;48.106;-1.696;2023-05-29T00:16:48;16.70;99.90
22968;DHT22;11650;48.106;-1.696;2023-05-29T00:19:14;16.70;99.90
22968;DHT22;11650;48.106;-1.696;2023-05-29T00:21:42;16.50;99.90
22968;DHT22;11650;48.106;-1.696;2023-05-29T00:24:08;16.60;99.90
22968;DHT22;11650;48.106;-1.696;2023-05-29T00:26:34;16.50;99.90
22968;DHT22;11650;48.106;-1.696;2023-05-29T00:29:00;16.60;99.90
22968;DHT22;11650;48.106;-1.696;2023-05-29T00:31:26;16.60;99.90
22968;DHT22;11650;48.106;-1.696;2023-05-29T00:33:51;16.60;99.90
22968;DHT22;11650;48.106;-1.696;2023-05-29T00:36:17;16.60;99.90
22968;DHT22;11650;48.106;-1.696;2023-05-29T00:38:43;16.60;99.90
22968;DHT22;11650;48.106;-1.696;2023-05-29T00:41:14;16.40;99.90
22968;DHT22;11650;48.106;-1.696;2023-05-29T00:43:40;16.50;99.90
22968;DHT22;11650;48.106;-1.696;2023-05-29T00:46:07;16.50;99.90
22968;DHT22;11650;48.106;-1.696;2023-05-29T00:48:33;16.50;99.90
22968;DHT22;11650;48.106;-1.696;2023-05-29T00:50:59;16.50;99.90
22968;DHT22;11650;48.106;-1.696;2023-05-29T00:53:25;16.50;99.90
22968;DHT22;11650;48.106;-1.696;2023-05-29T00:55:51;16.40;99.90
22968;DHT22;11650;48.106;-1.696;2023-05-29T00:58:18;16.40;99.90
22968;DHT22;11650;48.106;-1.696;2023-05-29T01:00:44;16.40;99.90
22968;DHT22;11650;48.106;-1.696;2023-05-29T01:03:11;16.40;99.90
22968;DHT22;11650;48.106;-1.696;2023-05-29T01:05:40;16.40;99.90
22968;DHT22;11650;48.106;-1.696;2023-05-29T01:08:06;16.30;99.90
22968;DHT22;11650;48.106;-1.696;2023-05-29T01:10:32;16.20;99.90
22968;DHT22;11650;48.106;-1.696;2023-05-29T01:13:09;16.20;99.90
22968;DHT22;11650;48.106;-1.696;2023-05-29T01:18:31;16.20;99.90
22968;DHT22;11650;48.106;-1.696;2023-05-29T01:26:45;16.10;99.90
22968;DHT22;11650;48.106;-1.696;2023-05-29T01:29:14;16.10;99.90
22968;DHT22;11650;48.106;-1.696;2023-05-29T01:31:42;16.10;99.90
22968;DHT22;11650;48.106;-1.696;2023-05-29T01:34:08;16.00;99.90
22968;DHT22;11650;48.106;-1.696;2023-05-29T01:36:34;16.00;99.90
22968;DHT22;11650;48.106;-1.696;2023-05-29T01:39:02;15.90;99.90
22968;DHT22;11650;48.106;-1.696;2023-05-29T01:41:29;15.90;99.90
22968;DHT22;11650;48.106;-1.696;2023-05-29T01:43:56;15.90;99.90
22968;DHT22;11650;48.106;-1.696;2023-05-29T01:46:23;15.90;99.90
22968;DHT22;11650;48.106;-1.696;2023-05-29T01:48:51;15.90;99.90
22968;DHT22;11650;48.106;-1.696;2023-05-29T01:51:17;15.90;99.90
22968;DHT22;11650;48.106;-1.696;2023-05-29T01:53:43;15.90;99.90
22968;DHT22;11650;48.106;-1.696;2023-05-29T01:56:09;15.80;99.90
22968;DHT22;11650;48.106;-1.696;2023-05-29T01:58:37;15.70;99.90
22968;DHT22;11650;48.106;-1.696;2023-05-29T02:01:03;15.60;99.90
22968;DHT22;11650;48.106;-1.696;2023-05-29T02:03:29;15.60;99.90
22968;DHT22;11650;48.106;-1.696;2023-05-29T02:05:57;15.60;99.90
22968;DHT22;11650;48.106;-1.696;2023-05-29T02:08:22;15.60;99.90
22968;DHT22;11650;48.106;-1.696;2023-05-29T02:10:48;15.60;99.90
22968;DHT22;11650;48.106;-1.696;2023-05-29T02:13:14;15.60;99.90
22968;DHT22;11650;48.106;-1.696;2023-05-29T02:15:40;15.60;99.90
22968;DHT22;11650;48.106;-1.696;2023-05-29T02:18:09;15.60;99.90
22968;DHT22;11650;48.106;-1.696;2023-05-29T02:20:37;15.50;99.90
22968;DHT22;11650;48.106;-1.696;2023-05-29T02:23:03;15.50;99.90
22968;DHT22;11650;48.106;-1.696;2023-05-29T02:25:28;15.40;99.90
22968;DHT22;11650;48.106;-1.696;2023-05-29T02:27:54;15.40;99.90
22968;DHT22;11650;48.106;-1.696;2023-05-29T02:30:20;15.40;99.90
22968;DHT22;11650;48.106;-1.696;2023-05-29T02:32:45;15.40;99.90
22968;DHT22;11650;48.106;-1.696;2023-05-29T02:35:12;15.40;99.90
22968;DHT22;11650;48.106;-1.696;2023-05-29T02:37:43;15.30;99.90
22968;DHT22;11650;48.106;-1.696;2023-05-29T02:40:09;15.30;99.90
22968;DHT22;11650;48.106;-1.696;2023-05-29T02:42:35;15.40;99.90
22968;DHT22;11650;48.106;-1.696;2023-05-29T02:45:01;15.30;99.90
22968;DHT22;11650;48.106;-1.696;2023-05-29T02:47:26;15.30;99.90
22968;DHT22;11650;48.106;-1.696;2023-05-29T02:49:52;15.20;99.90
22968;DHT22;11650;48.106;-1.696;2023-05-29T02:52:18;15.20;99.90
22968;DHT22;11650;48.106;-1.696;2023-05-29T02:54:43;15.10;99.90
22968;DHT22;11650;48.106;-1.696;2023-05-29T02:57:09;15.10;99.90
22968;DHT22;11650;48.106;-1.696;2023-05-29T02:59:35;15.10;99.90
22968;DHT22;11650;48.106;-1.696;2023-05-29T03:02:01;15.10;99.90
22968;DHT22;11650;48.106;-1.696;2023-05-29T03:04:27;15.10;99.90
22968;DHT22;11650;48.106;-1.696;2023-05-29T03:06:52;15.10;99.90
22968;DHT22;11650;48.106;-1.696;2023-05-29T03:09:19;15.00;99.90
22968;DHT22;11650;48.106;-1.696;2023-05-29T03:11:45;15.00;99.90
22968;DHT22;11650;48.106;-1.696;2023-05-29T03:14:13;15.00;99.90
22968;DHT22;11650;48.106;-1.696;2023-05-29T03:16:39;14.90;99.90
22968;DHT22;11650;48.106;-1.696;2023-05-29T03:19:08;15.00;99.90
22968;DHT22;11650;48.106;-1.696;2023-05-29T03:21:34;14.90;99.90
22968;DHT22;11650;48.106;-1.696;2023-05-29T03:24:01;15.00;99.90
22968;DHT22;11650;48.106;-1.696;2023-05-29T03:26:28;14.90;99.90
22968;DHT22;11650;48.106;-1.696;2023-05-29T03:28:54;14.90;99.90
22968;DHT22;11650;48.106;-1.696;2023-05-29T03:31:20;14.90;99.90
22968;DHT22;11650;48.106;-1.696;2023-05-29T03:33:47;14.80;99.90
22968;DHT22;11650;48.106;-1.696;2023-05-29T03:36:13;14.80;99.90
22968;DHT22;11650;48.106;-1.696;2023-05-29T03:38:38;14.70;99.90
22968;DHT22;11650;48.106;-1.696;2023-05-29T03:41:04;14.70;99.90
22968;DHT22;11650;48.106;-1.696;2023-05-29T03:43:30;14.70;99.90
22968;DHT22;11650;48.106;-1.696;2023-05-29T03:45:56;14.60;99.90
22968;DHT22;11650;48.106;-1.696;2023-05-29T03:48:21;14.60;99.90
22968;DHT22;11650;48.106;-1.696;2023-05-29T03:50:47;14.60;99.90
22968;DHT22;11650;48.106;-1.696;2023-05-29T03:53:12;14.60;99.90
22968;DHT22;11650;48.106;-1.696;2023-05-29T03:55:38;14.60;99.90
22968;DHT22;11650;48.106;-1.696;2023-05-29T03:58:04;14.50;99.90
22968;DHT22;11650;48.106;-1.696;2023-05-29T04:00:29;14.50;99.90
22968;DHT22;11650;48.106;-1.696;2023-05-29T04:02:56;14.40;99.90
22968;DHT22;11650;48.106;-1.696;2023-05-29T04:05:21;14.40;99.90
22968;DHT22;11650;48.106;-1.696;2023-05-29T04:07:47;14.30;99.90
22968;DHT22;11650;48.106;-1.696;2023-05-29T04:10:13;14.30;99.90
22968;DHT22;11650;48.106;-1.696;2023-05-29T04:12:38;14.30;99.90
22968;DHT22;11650;48.106;-1.696;2023-05-29T04:15:05;14.40;99.90
22968;DHT22;11650;48.106;-1.696;2023-05-29T04:17:31;14.30;99.90
22968;DHT22;11650;48.106;-1.696;2023-05-29T04:19:57;14.40;99.90
22968;DHT22;11650;48.106;-1.696;2023-05-29T04:22:22;14.30;99.90
22968;DHT22;11650;48.106;-1.696;2023-05-29T04:24:48;14.30;99.90
22968;DHT22;11650;48.106;-1.696;2023-05-29T04:27:14;14.30;99.90
22968;DHT22;11650;48.106;-1.696;2023-05-29T04:29:41;14.20;99.90
22968;DHT22;11650;48.106;-1.696;2023-05-29T04:32:10;14.30;99.90
22968;DHT22;11650;48.106;-1.696;2023-05-29T04:34:37;14.20;99.90
22968;DHT22;11650;48.106;-1.696;2023-05-29T04:37:05;14.20;99.90
22968;DHT22;11650;48.106;-1.696;2023-05-29T04:39:31;14.20;99.90
22968;DHT22;11650;48.106;-1.696;2023-05-29T04:41:57;14.30;99.90
22968;DHT22;11650;48.106;-1.696;2023-05-29T04:44:26;14.30;99.90
22968;DHT22;11650;48.106;-1.696;2023-05-29T04:46:52;14.30;99.90
22968;DHT22;11650;48.106;-1.696;2023-05-29T04:49:18;14.30;99.90
22968;DHT22;11650;48.106;-1.696;2023-05-29T04:51:44;14.30;99.90
22968;DHT22;11650;48.106;-1.696;2023-05-29T04:54:10;14.30;99.90
22968;DHT22;11650;48.106;-1.696;2023-05-29T04:56:36;14.30;99.90
22968;DHT22;11650;48.106;-1.696;2023-05-29T04:59:03;14.30;99.90
22968;DHT22;11650;48.106;-1.696;2023-05-29T05:01:28;14.30;99.90
22968;DHT22;11650;48.106;-1.696;2023-05-29T05:03:54;14.30;99.90
22968;DHT22;11650;48.106;-1.696;2023-05-29T05:06:23;14.30;99.90
22968;DHT22;11650;48.106;-1.696;2023-05-29T05:08:51;14.30;99.90
22968;DHT22;11650;48.106;-1.696;2023-05-29T05:11:17;14.30;99.90
22968;DHT22;11650;48.106;-1.696;2023-05-29T05:13:43;14.30;99.90
22968;DHT22;11650;48.106;-1.696;2023-05-29T05:16:09;14.30;99.90
22968;DHT22;11650;48.106;-1.696;2023-05-29T05:18:35;14.40;99.90
22968;DHT22;11650;48.106;-1.696;2023-05-29T05:21:01;14.40;99.90
22968;DHT22;11650;48.106;-1.696;2023-05-29T05:23:29;14.50;99.90
22968;DHT22;11650;48.106;-1.696;2023-05-29T05:25:55;14.40;99.90
22968;DHT22;11650;48.106;-1.696;2023-05-29T05:28:21;14.50;99.90
22968;DHT22;11650;48.106;-1.696;2023-05-29T05:30:47;14.60;99.90
22968;DHT22;11650;48.106;-1.696;2023-05-29T05:33:12;14.70;99.90
22968;DHT22;11650;48.106;-1.696;2023-05-29T05:35:38;14.60;99.90
22968;DHT22;11650;48.106;-1.696;2023-05-29T05:38:04;14.60;99.90
22968;DHT22;11650;48.106;-1.696;2023-05-29T05:40:30;14.50;99.90
22968;DHT22;11650;48.106;-1.696;2023-05-29T05:42:55;14.60;99.90
22968;DHT22;11650;48.106;-1.696;2023-05-29T05:45:21;14.70;99.90
22968;DHT22;11650;48.106;-1.696;2023-05-29T05:47:47;14.70;99.90
22968;DHT22;11650;48.106;-1.696;2023-05-29T05:50:13;14.70;99.90
22968;DHT22;11650;48.106;-1.696;2023-05-29T05:52:38;14.70;99.90
22968;DHT22;11650;48.106;-1.696;2023-05-29T05:55:04;14.80;99.90
22968;DHT22;11650;48.106;-1.696;2023-05-29T05:57:30;14.90;99.90
22968;DHT22;11650;48.106;-1.696;2023-05-29T06:00:02;14.90;99.90
22968;DHT22;11650;48.106;-1.696;2023-05-29T06:02:31;15.00;99.90
22968;DHT22;11650;48.106;-1.696;2023-05-29T06:04:57;14.90;99.90
22968;DHT22;11650;48.106;-1.696;2023-05-29T06:07:22;14.90;99.90
22968;DHT22;11650;48.106;-1.696;2023-05-29T06:09:48;15.00;99.90
22968;DHT22;11650;48.106;-1.696;2023-05-29T06:12:14;15.00;99.90
22968;DHT22;11650;48.106;-1.696;2023-05-29T06:14:41;15.10;99.90
22968;DHT22;11650;48.106;-1.696;2023-05-29T06:17:06;15.10;99.90
22968;DHT22;11650;48.106;-1.696;2023-05-29T06:19:32;15.10;99.90
22968;DHT22;11650;48.106;-1.696;2023-05-29T06:21:57;15.20;99.90
22968;DHT22;11650;48.106;-1.696;2023-05-29T06:24:23;15.30;99.90
22968;DHT22;11650;48.106;-1.696;2023-05-29T06:26:49;15.50;99.90
22968;DHT22;11650;48.106;-1.696;2023-05-29T06:29:15;15.70;99.90
22968;DHT22;11650;48.106;-1.696;2023-05-29T06:31:41;15.80;99.90
22968;DHT22;11650;48.106;-1.696;2023-05-29T06:34:06;15.90;99.90
22968;DHT22;11650;48.106;-1.696;2023-05-29T06:36:32;16.00;99.90
22968;DHT22;11650;48.106;-1.696;2023-05-29T06:38:58;15.90;99.90
22968;DHT22;11650;48.106;-1.696;2023-05-29T06:41:23;16.00;99.90
22968;DHT22;11650;48.106;-1.696;2023-05-29T06:43:49;16.00;99.90
22968;DHT22;11650;48.106;-1.696;2023-05-29T06:46:17;16.10;99.90
22968;DHT22;11650;48.106;-1.696;2023-05-29T06:48:42;16.20;99.90
22968;DHT22;11650;48.106;-1.696;2023-05-29T06:51:09;16.20;99.90
22968;DHT22;11650;48.106;-1.696;2023-05-29T06:53:38;16.20;99.90
22968;DHT22;11650;48.106;-1.696;2023-05-29T06:56:04;16.30;99.90
22968;DHT22;11650;48.106;-1.696;2023-05-29T06:58:31;16.40;99.90
22968;DHT22;11650;48.106;-1.696;2023-05-29T07:00:57;16.30;99.90
22968;DHT22;11650;48.106;-1.696;2023-05-29T07:03:25;16.30;99.90
22968;DHT22;11650;48.106;-1.696;2023-05-29T07:05:51;16.50;99.90
22968;DHT22;11650;48.106;-1.696;2023-05-29T07:08:17;16.50;99.90
22968;DHT22;11650;48.106;-1.696;2023-05-29T07:10:43;16.60;99.90
22968;DHT22;11650;48.106;-1.696;2023-05-29T07:13:08;16.70;99.90
22968;DHT22;11650;48.106;-1.696;2023-05-29T07:15:34;16.70;99.90
22968;DHT22;11650;48.106;-1.696;2023-05-29T07:18:00;16.70;99.90
22968;DHT22;11650;48.106;-1.696;2023-05-29T07:20:26;16.90;99.90
22968;DHT22;11650;48.106;-1.696;2023-05-29T07:22:51;17.00;99.90
22968;DHT22;11650;48.106;-1.696;2023-05-29T07:25:17;16.90;99.90
22968;DHT22;11650;48.106;-1.696;2023-05-29T07:27:43;16.90;99.90
22968;DHT22;11650;48.106;-1.696;2023-05-29T07:30:09;17.00;99.90
22968;DHT22;11650;48.106;-1.696;2023-05-29T07:32:35;17.10;99.90
22968;DHT22;11650;48.106;-1.696;2023-05-29T07:35:01;17.30;99.90
22968;DHT22;11650;48.106;-1.696;2023-05-29T07:37:26;17.20;99.90
22968;DHT22;11650;48.106;-1.696;2023-05-29T07:39:52;17.20;99.90
22968;DHT22;11650;48.106;-1.696;2023-05-29T07:42:18;17.30;99.90
22968;DHT22;11650;48.106;-1.696;2023-05-29T07:44:44;17.40;99.90
22968;DHT22;11650;48.106;-1.696;2023-05-29T07:47:11;17.60;99.90
22968;DHT22;11650;48.106;-1.696;2023-05-29T07:49:37;17.70;99.90
22968;DHT22;11650;48.106;-1.696;2023-05-29T07:52:03;17.80;99.90
22968;DHT22;11650;48.106;-1.696;2023-05-29T07:54:29;17.90;99.90
22968;DHT22;11650;48.106;-1.696;2023-05-29T07:57:00;17.90;99.90
22968;DHT22;11650;48.106;-1.696;2023-05-29T07:59:28;17.90;99.90
22968;DHT22;11650;48.106;-1.696;2023-05-29T08:01:54;18.00;99.90
22968;DHT22;11650;48.106;-1.696;2023-05-29T08:04:24;17.90;99.90
22968;DHT22;11650;48.106;-1.696;2023-05-29T08:06:50;18.10;99.90
22968;DHT22;11650;48.106;-1.696;2023-05-29T08:09:16;17.90;99.90
22968;DHT22;11650;48.106;-1.696;2023-05-29T08:11:43;18.00;99.90
22968;DHT22;11650;48.106;-1.696;2023-05-29T08:14:11;17.90;99.90
22968;DHT22;11650;48.106;-1.696;2023-05-29T08:16:37;18.00;99.90
22968;DHT22;11650;48.106;-1.696;2023-05-29T08:19:02;18.20;99.90
22968;DHT22;11650;48.106;-1.696;2023-05-29T08:21:29;18.30;99.90
22968;DHT22;11650;48.106;-1.696;2023-05-29T08:23:55;18.50;99.90
22968;DHT22;11650;48.106;-1.696;2023-05-29T08:26:21;18.50;99.90
22968;DHT22;11650;48.106;-1.696;2023-05-29T08:28:47;18.60;99.90
22968;DHT22;11650;48.106;-1.696;2023-05-29T08:31:13;18.70;99.90
22968;DHT22;11650;48.106;-1.696;2023-05-29T08:33:38;18.70;99.90
22968;DHT22;11650;48.106;-1.696;2023-05-29T08:36:04;18.60;99.90
22968;DHT22;11650;48.106;-1.696;2023-05-29T08:38:29;18.80;99.90
22968;DHT22;11650;48.106;-1.696;2023-05-29T08:40:56;18.90;99.90
22968;DHT22;11650;48.106;-1.696;2023-05-29T08:43:28;19.00;99.90
22968;DHT22;11650;48.106;-1.696;2023-05-29T08:45:59;19.00;99.90
22968;DHT22;11650;48.106;-1.696;2023-05-29T08:48:25;19.00;99.90
22968;DHT22;11650;48.106;-1.696;2023-05-29T08:50:53;19.20;99.90
22968;DHT22;11650;48.106;-1.696;2023-05-29T08:53:21;19.40;99.90
22968;DHT22;11650;48.106;-1.696;2023-05-29T08:55:47;19.70;99.90
22968;DHT22;11650;48.106;-1.696;2023-05-29T08:58:17;19.10;99.90
22968;DHT22;11650;48.106;-1.696;2023-05-29T09:00:44;19.10;99.90
22968;DHT22;11650;48.106;-1.696;2023-05-29T09:03:11;19.20;99.90
22968;DHT22;11650;48.106;-1.696;2023-05-29T09:05:39;19.30;99.90
22968;DHT22;11650;48.106;-1.696;2023-05-29T09:08:09;19.60;99.90
22968;DHT22;11650;48.106;-1.696;2023-05-29T09:10:46;19.70;99.90
22968;DHT22;11650;48.106;-1.696;2023-05-29T09:13:12;19.80;99.90
22968;DHT22;11650;48.106;-1.696;2023-05-29T09:15:39;20.00;99.90
22968;DHT22;11650;48.106;-1.696;2023-05-29T09:18:08;19.70;99.90
22968;DHT22;11650;48.106;-1.696;2023-05-29T09:20:34;19.80;99.90
22968;DHT22;11650;48.106;-1.696;2023-05-29T09:23:02;19.90;99.90
22968;DHT22;11650;48.106;-1.696;2023-05-29T09:25:30;19.80;99.90
22968;DHT22;11650;48.106;-1.696;2023-05-29T09:28:04;20.00;99.90
22968;DHT22;11650;48.106;-1.696;2023-05-29T09:30:42;20.20;99.90
22968;DHT22;11650;48.106;-1.696;2023-05-29T09:33:13;20.70;99.90
22968;DHT22;11650;48.106;-1.696;2023-05-29T09:35:40;20.90;99.90
22968;DHT22;11650;48.106;-1.696;2023-05-29T09:38:09;20.90;99.90
22968;DHT22;11650;48.106;-1.696;2023-05-29T09:40:39;20.60;99.90
22968;DHT22;11650;48.106;-1.696;2023-05-29T09:43:11;20.60;99.90
22968;DHT22;11650;48.106;-1.696;2023-05-29T09:45:38;20.90;99.90
22968;DHT22;11650;48.106;-1.696;2023-05-29T09:48:06;21.20;99.90
22968;DHT22;11650;48.106;-1.696;2023-05-29T09:50:33;21.10;99.90
22968;DHT22;11650;48.106;-1.696;2023-05-29T09:53:00;20.60;99.90
22968;DHT22;11650;48.106;-1.696;2023-05-29T09:55:27;21.00;99.90
22968;DHT22;11650;48.106;-1.696;2023-05-29T09:57:54;21.50;99.90
22968;DHT22;11650;48.106;-1.696;2023-05-29T10:00:20;21.60;99.90
22968;DHT22;11650;48.106;-1.696;2023-05-29T10:02:48;21.50;99.90
22968;DHT22;11650;48.106;-1.696;2023-05-29T10:05:14;21.50;99.90
22968;DHT22;11650;48.106;-1.696;2023-05-29T10:07:44;21.70;99.90
22968;DHT22;11650;48.106;-1.696;2023-05-29T10:10:13;21.90;99.90
22968;DHT22;11650;48.106;-1.696;2023-05-29T10:12:44;22.20;99.90
22968;DHT22;11650;48.106;-1.696;2023-05-29T10:15:14;21.90;99.90
22968;DHT22;11650;48.106;-1.696;2023-05-29T10:17:51;22.10;99.90
22968;DHT22;11650;48.106;-1.696;2023-05-29T10:20:20;22.10;99.90
22968;DHT22;11650;48.106;-1.696;2023-05-29T10:22:47;22.00;99.90
22968;DHT22;11650;48.106;-1.696;2023-05-29T10:25:14;21.80;99.90
22968;DHT22;11650;48.106;-1.696;2023-05-29T10:27:42;21.90;99.90
22968;DHT22;11650;48.106;-1.696;2023-05-29T10:36:22;21.80;99.90
22968;DHT22;11650;48.106;-1.696;2023-05-29T10:38:50;22.30;99.90
22968;DHT22;11650;48.106;-1.696;2023-05-29T10:43:57;22.80;99.90
22968;DHT22;11650;48.106;-1.696;2023-05-29T10:49:21;22.90;99.90
22968;DHT22;11650;48.106;-1.696;2023-05-29T10:51:47;23.10;99.90
22968;DHT22;11650;48.106;-1.696;2023-05-29T10:54:14;23.00;99.90
22968;DHT22;11650;48.106;-1.696;2023-05-29T10:56:40;22.90;99.90
22968;DHT22;11650;48.106;-1.696;2023-05-29T10:59:08;22.80;99.90
22968;DHT22;11650;48.106;-1.696;2023-05-29T11:01:34;23.20;99.90
22968;DHT22;11650;48.106;-1.696;2023-05-29T11:04:29;23.50;99.90
22968;DHT22;11650;48.106;-1.696;2023-05-29T11:06:57;23.60;99.90
22968;DHT22;11650;48.106;-1.696;2023-05-29T11:09:31;23.50;99.90
22968;DHT22;11650;48.106;-1.696;2023-05-29T11:15:10;23.90;99.90
22968;DHT22;11650;48.106;-1.696;2023-05-29T11:25:14;24.40;99.90
22968;DHT22;11650;48.106;-1.696;2023-05-29T11:27:42;24.60;99.90
22968;DHT22;11650;48.106;-1.696;2023-05-29T11:30:08;24.20;99.90
22968;DHT22;11650;48.106;-1.696;2023-05-29T11:32:36;24.30;99.90
22968;DHT22;11650;48.106;-1.696;2023-05-29T11:35:08;24.40;99.90
22968;DHT22;11650;48.106;-1.696;2023-05-29T11:37:44;23.90;99.90
22968;DHT22;11650;48.106;-1.696;2023-05-29T11:40:13;23.90;99.90
22968;DHT22;11650;48.106;-1.696;2023-05-29T11:42:44;24.10;99.90
22968;DHT22;11650;48.106;-1.696;2023-05-29T11:45:17;24.20;99.90
22968;DHT22;11650;48.106;-1.696;2023-05-29T11:47:57;24.50;99.90
22968;DHT22;11650;48.106;-1.696;2023-05-29T11:50:25;24.50;99.90
22968;DHT22;11650;48.106;-1.696;2023-05-29T11:52:51;24.50;99.90
22968;DHT22;11650;48.106;-1.696;2023-05-29T11:55:20;24.60;99.90
22968;DHT22;11650;48.106;-1.696;2023-05-29T11:57:47;24.90;99.90
22968;DHT22;11650;48.106;-1.696;2023-05-29T12:00:14;25.30;99.90
22968;DHT22;11650;48.106;-1.696;2023-05-29T12:02:41;25.00;99.90
22968;DHT22;11650;48.106;-1.696;2023-05-29T12:05:08;25.20;99.90
22968;DHT22;11650;48.106;-1.696;2023-05-29T12:07:36;25.20;99.90
22968;DHT22;11650;48.106;-1.696;2023-05-29T12:10:17;25.60;99.90
22968;DHT22;11650;48.106;-1.696;2023-05-29T12:12:48;26.00;99.90
22968;DHT22;11650;48.106;-1.696;2023-05-29T12:15:14;26.10;99.90
22968;DHT22;11650;48.106;-1.696;2023-05-29T12:17:40;26.20;99.90
22968;DHT22;11650;48.106;-1.696;2023-05-29T12:20:07;26.80;99.90
22968;DHT22;11650;48.106;-1.696;2023-05-29T12:22:36;26.50;99.90
22968;DHT22;11650;48.106;-1.696;2023-05-29T12:25:15;26.30;99.90
22968;DHT22;11650;48.106;-1.696;2023-05-29T12:27:46;26.50;99.90
22968;DHT22;11650;48.106;-1.696;2023-05-29T12:30:30;27.00;99.90
22968;DHT22;11650;48.106;-1.696;2023-05-29T12:32:56;26.20;99.90
22968;DHT22;11650;48.106;-1.696;2023-05-29T12:35:27;26.30;99.90
22968;DHT22;11650;48.106;-1.696;2023-05-29T12:38:01;26.30;99.90
22968;DHT22;11650;48.106;-1.696;2023-05-29T12:40:33;26.40;99.90
22968;DHT22;11650;48.106;-1.696;2023-05-29T12:43:05;26.70;99.90
22968;DHT22;11650;48.106;-1.696;2023-05-29T12:45:33;27.10;99.90
22968;DHT22;11650;48.106;-1.696;2023-05-29T12:48:03;26.80;99.90
22968;DHT22;11650;48.106;-1.696;2023-05-29T12:50:37;26.50;99.90
22968;DHT22;11650;48.106;-1.696;2023-05-29T12:53:11;26.70;99.90
22968;DHT22;11650;48.106;-1.696;2023-05-29T12:55:42;26.50;99.90
22968;DHT22;11650;48.106;-1.696;2023-05-29T12:58:12;26.90;99.90
22968;DHT22;11650;48.106;-1.696;2023-05-29T13:00:40;27.40;99.90
22968;DHT22;11650;48.106;-1.696;2023-05-29T13:03:06;27.80;99.90
22968;DHT22;11650;48.106;-1.696;2023-05-29T13:05:32;27.90;99.90
22968;DHT22;11650;48.106;-1.696;2023-05-29T13:07:58;27.40;99.90
22968;DHT22;11650;48.106;-1.696;2023-05-29T13:10:25;27.90;99.90
22968;DHT22;11650;48.106;-1.696;2023-05-29T13:12:52;28.20;99.90
22968;DHT22;11650;48.106;-1.696;2023-05-29T13:15:24;28.20;99.90
22968;DHT22;11650;48.106;-1.696;2023-05-29T13:17:50;28.40;99.90
22968;DHT22;11650;48.106;-1.696;2023-05-29T13:20:16;28.30;99.90
22968;DHT22;11650;48.106;-1.696;2023-05-29T13:22:43;28.70;99.90
22968;DHT22;11650;48.106;-1.696;2023-05-29T13:25:12;28.90;99.90
22968;DHT22;11650;48.106;-1.696;2023-05-29T13:27:40;28.90;99.90
22968;DHT22;11650;48.106;-1.696;2023-05-29T13:30:07;29.30;99.90
22968;DHT22;11650;48.106;-1.696;2023-05-29T13:32:34;29.90;99.90
22968;DHT22;11650;48.106;-1.696;2023-05-29T13:35:00;30.50;99.90
22968;DHT22;11650;48.106;-1.696;2023-05-29T13:37:26;29.90;99.90
22968;DHT22;11650;48.106;-1.696;2023-05-29T13:39:53;29.60;99.90
22968;DHT22;11650;48.106;-1.696;2023-05-29T13:42:20;29.70;99.90
22968;DHT22;11650;48.106;-1.696;2023-05-29T13:44:46;30.10;99.90
22968;DHT22;11650;48.106;-1.696;2023-05-29T13:47:13;30.70;99.90
22968;DHT22;11650;48.106;-1.696;2023-05-29T13:49:39;30.60;99.90
22968;DHT22;11650;48.106;-1.696;2023-05-29T13:52:05;31.20;99.90
22968;DHT22;11650;48.106;-1.696;2023-05-29T13:54:31;31.30;99.90
22968;DHT22;11650;48.106;-1.696;2023-05-29T13:57:04;31.50;99.90
22968;DHT22;11650;48.106;-1.696;2023-05-29T13:59:33;31.00;99.90
22968;DHT22;11650;48.106;-1.696;2023-05-29T14:01:59;31.00;99.90
22968;DHT22;11650;48.106;-1.696;2023-05-29T14:04:25;31.20;99.90
22968;DHT22;11650;48.106;-1.696;2023-05-29T14:06:52;31.80;99.90
22968;DHT22;11650;48.106;-1.696;2023-05-29T14:09:18;31.70;99.90
22968;DHT22;11650;48.106;-1.696;2023-05-29T14:11:52;31.70;99.90
22968;DHT22;11650;48.106;-1.696;2023-05-29T14:14:17;32.50;99.90
22968;DHT22;11650;48.106;-1.696;2023-05-29T14:16:43;32.20;99.90
22968;DHT22;11650;48.106;-1.696;2023-05-29T14:19:09;31.80;99.90
22968;DHT22;11650;48.106;-1.696;2023-05-29T14:21:34;31.50;99.90
22968;DHT22;11650;48.106;-1.696;2023-05-29T14:24:01;32.30;99.90
22968;DHT22;11650;48.106;-1.696;2023-05-29T14:26:26;31.70;99.90
22968;DHT22;11650;48.106;-1.696;2023-05-29T14:28:52;32.10;99.90
22968;DHT22;11650;48.106;-1.696;2023-05-29T14:31:18;32.00;99.90
22968;DHT22;11650;48.106;-1.696;2023-05-29T14:33:43;32.40;99.90
22968;DHT22;11650;48.106;-1.696;2023-05-29T14:36:09;32.80;99.90
22968;DHT22;11650;48.106;-1.696;2023-05-29T14:38:35;32.70;99.90
22968;DHT22;11650;48.106;-1.696;2023-05-29T14:41:02;33.20;99.90
22968;DHT22;11650;48.106;-1.696;2023-05-29T14:43:27;33.20;99.90
22968;DHT22;11650;48.106;-1.696;2023-05-29T14:45:53;33.00;99.90
22968;DHT22;11650;48.106;-1.696;2023-05-29T14:48:19;33.80;99.90
22968;DHT22;11650;48.106;-1.696;2023-05-29T14:50:44;33.50;99.90
22968;DHT22;11650;48.106;-1.696;2023-05-29T14:53:10;34.00;99.90
22968;DHT22;11650;48.106;-1.696;2023-05-29T14:55:35;34.70;99.90
22968;DHT22;11650;48.106;-1.696;2023-05-29T14:58:03;34.30;99.90
22968;DHT22;11650;48.106;-1.696;2023-05-29T15:00:29;34.50;99.70
22968;DHT22;11650;48.106;-1.696;2023-05-29T15:02:55;33.70;99.80
22968;DHT22;11650;48.106;-1.696;2023-05-29T15:05:27;34.20;99.70
22968;DHT22;11650;48.106;-1.696;2023-05-29T15:07:53;34.10;99.10
22968;DHT22;11650;48.106;-1.696;2023-05-29T15:10:23;34.10;99.10
22968;DHT22;11650;48.106;-1.696;2023-05-29T15:12:50;34.80;98.80
22968;DHT22;11650;48.106;-1.696;2023-05-29T15:15:25;34.80;98.50
22968;DHT22;11650;48.106;-1.696;2023-05-29T15:17:52;34.80;99.30
22968;DHT22;11650;48.106;-1.696;2023-05-29T15:20:22;33.60;99.80
22968;DHT22;11650;48.106;-1.696;2023-05-29T15:22:48;33.20;99.90
22968;DHT22;11650;48.106;-1.696;2023-05-29T15:25:14;32.70;99.90
22968;DHT22;11650;48.106;-1.696;2023-05-29T15:27:40;32.90;99.90
22968;DHT22;11650;48.106;-1.696;2023-05-29T15:30:14;33.10;99.90
22968;DHT22;11650;48.106;-1.696;2023-05-29T15:32:42;33.80;99.70
22968;DHT22;11650;48.106;-1.696;2023-05-29T15:35:13;34.00;99.90
22968;DHT22;11650;48.106;-1.696;2023-05-29T15:37:40;33.70;99.90
22968;DHT22;11650;48.106;-1.696;2023-05-29T15:40:06;34.00;99.90
22968;DHT22;11650;48.106;-1.696;2023-05-29T15:42:32;34.50;99.90
22968;DHT22;11650;48.106;-1.696;2023-05-29T15:44:58;34.70;99.90
22968;DHT22;11650;48.106;-1.696;2023-05-29T15:47:24;34.60;99.90